Time,TemperatureF,DewpointF,PressureIn,WindDirection,WindDirectionDegrees,WindSpeedMPH,WindSpeedGustMPH,Humidity,HourlyPrecipIn,Conditions,Clouds,dailyrainin,SoftwareType,DateUTC
2013-02-17 00:09:00,30.4,16.0,30.09,South,181,0.0,1.0,56,0.00,,,0.00,weatherlink.com 1.10,2013-02-17 07:09:00,
2013-02-17 00:24:00,29.4,15.0,30.08,South,181,0.0,0.0,56,0.00,,,0.00,weatherlink.com 1.10,2013-02-17 07:24:00,
2013-02-17 00:39:00,29.2,16.0,30.08,SSE,167,0.0,2.0,57,0.00,,,0.00,weatherlink.com 1.10,2013-02-17 07:39:00,
2013-02-17 00:54:00,28.6,16.0,30.08,SSE,167,0.0,1.0,60,0.00,,,0.00,weatherlink.com 1.10,2013-02-17 07:54:00,
2013-02-17 01:09:00,27.9,16.0,30.07,SSE,165,0.0,1.0,61,0.00,,,0.00,weatherlink.com 1.10,2013-02-17 08:09:00,
2013-02-17 01:24:00,27.7,16.0,30.07,SSE,165,0.0,0.0,61,0.00,,,0.00,weatherlink.com 1.10,2013-02-17 08:24:00,
2013-02-17 01:39:00,27.3,15.0,30.06,SSE,165,0.0,1.0,60,0.00,,,0.00,weatherlink.com 1.10,2013-02-17 08:39:00,
2013-02-17 01:54:00,27.3,16.0,30.06,SSE,165,0.0,0.0,63,0.00,,,0.00,weatherlink.com 1.10,2013-02-17 08:54:00,
2013-02-17 02:09:00,27.0,16.0,30.05,SSE,165,0.0,0.0,64,0.00,,,0.00,weatherlink.com 1.10,2013-02-17 09:09:00,
2013-02-17 02:24:00,26.7,15.0,30.05,SSE,165,0.0,0.0,62,0.00,,,0.00,weatherlink.com 1.10,2013-02-17 09:24:00,
2013-02-17 02:39:00,26.2,16.0,30.05,SSE,163,0.0,1.0,66,0.00,,,0.00,weatherlink.com 1.10,2013-02-17 09:39:00,
2013-02-17 02:54:00,25.8,15.0,30.04,ESE,122,0.0,2.0,65,0.00,,,0.00,weatherlink.com 1.10,2013-02-17 09:54:00,
2013-02-17 03:09:00,26.1,15.0,30.03,South,175,0.0,0.0,64,0.00,,,0.00,weatherlink.com 1.10,2013-02-17 10:09:00,
2013-02-17 03:24:00,25.8,15.0,30.02,South,175,0.0,0.0,65,0.00,,,0.00,weatherlink.com 1.10,2013-02-17 10:24:00,
2013-02-17 03:39:00,25.4,15.0,30.02,South,175,0.0,0.0,64,0.00,,,0.00,weatherlink.com 1.10,2013-02-17 10:39:00,
2013-02-17 03:54:00,25.1,15.0,30.02,South,175,0.0,0.0,66,0.00,,,0.00,weatherlink.com 1.10,2013-02-17 10:54:00,
2013-02-17 04:09:00,24.2,15.0,30.02,South,175,0.0,0.0,68,0.00,,,0.00,weatherlink.com 1.10,2013-02-17 11:09:00,
2013-02-17 04:24:00,23.7,15.0,30.02,South,175,0.0,0.0,69,0.00,,,0.00,weatherlink.com 1.10,2013-02-17 11:24:00,
2013-02-17 04:39:00,22.8,15.0,30.00,SSE,167,0.0,1.0,71,0.00,,,0.00,weatherlink.com 1.10,2013-02-17 11:39:00,
2013-02-17 04:54:00,22.2,15.0,30.00,SSE,155,2.0,2.0,74,0.00,,,0.00,weatherlink.com 1.10,2013-02-17 11:54:00,
2013-02-17 05:09:00,22.0,15.0,29.99,SSE,155,0.0,2.0,74,0.00,,,0.00,weatherlink.com 1.10,2013-02-17 12:09:00,
2013-02-17 05:24:00,22.0,15.0,30.00,SSE,155,0.0,1.0,75,0.00,,,0.00,weatherlink.com 1.10,2013-02-17 12:24:00,
2013-02-17 05:39:00,22.2,15.0,30.00,SSE,155,0.0,0.0,73,0.00,,,0.00,weatherlink.com 1.10,2013-02-17 12:39:00,
2013-02-17 05:55:00,22.6,15.0,29.99,SSE,155,0.0,2.0,72,0.00,,,0.00,weatherlink.com 1.10,2013-02-17 12:55:00,
2013-02-17 06:10:00,22.7,15.0,29.99,SSE,155,0.0,0.0,72,0.00,,,0.00,weatherlink.com 1.10,2013-02-17 13:10:00,
2013-02-17 06:25:00,22.9,15.0,29.98,SSE,155,0.0,0.0,71,0.00,,,0.00,weatherlink.com 1.10,2013-02-17 13:25:00,
2013-02-17 06:40:00,22.7,15.0,29.98,SSE,155,0.0,0.0,71,0.00,,,0.00,weatherlink.com 1.10,2013-02-17 13:40:00,
2013-02-17 06:55:00,22.5,15.0,29.98,SSE,155,0.0,0.0,72,0.00,,,0.00,weatherlink.com 1.10,2013-02-17 13:55:00,
2013-02-17 07:10:00,22.3,15.0,29.98,SSE,155,0.0,0.0,72,0.00,,,0.00,weatherlink.com 1.10,2013-02-17 14:10:00,
2013-02-17 07:25:00,22.2,14.0,29.98,SSE,155,0.0,0.0,71,0.00,,,0.00,weatherlink.com 1.10,2013-02-17 14:25:00,
2013-02-17 07:40:00,22.2,15.0,29.98,SSE,155,0.0,0.0,73,0.00,,,0.00,weatherlink.com 1.10,2013-02-17 14:40:00,
2013-02-17 07:55:00,23.1,17.0,29.98,SSE,155,0.0,0.0,77,0.00,,,0.00,weatherlink.com 1.10,2013-02-17 14:55:00,
2013-02-17 08:10:00,25.0,18.0,29.98,SSE,155,0.0,0.0,76,0.00,,,0.00,weatherlink.com 1.10,2013-02-17 15:10:00,
2013-02-17 08:25:00,27.2,20.0,29.98,SSE,155,0.0,0.0,73,0.00,,,0.00,weatherlink.com 1.10,2013-02-17 15:25:00,
2013-02-17 08:40:00,29.6,20.0,29.98,SSE,155,0.0,0.0,68,0.00,,,0.00,weatherlink.com 1.10,2013-02-17 15:40:00,
2013-02-17 08:55:00,31.6,21.0,29.98,SSE,155,0.0,0.0,66,0.00,,,0.00,weatherlink.com 1.10,2013-02-17 15:55:00,
2013-02-17 09:10:00,34.2,23.0,29.98,SSE,155,0.0,0.0,63,0.00,,,0.00,weatherlink.com 1.10,2013-02-17 16:10:00,
2013-02-17 09:25:00,36.8,21.0,29.98,SSW,202,2.0,2.0,53,0.00,,,0.00,weatherlink.com 1.10,2013-02-17 16:25:00,
2013-02-17 09:40:00,39.0,22.0,29.97,SSW,207,0.0,0.0,51,0.00,,,0.00,weatherlink.com 1.10,2013-02-17 16:40:00,
2013-02-17 09:55:00,41.1,22.0,29.96,SSW,207,0.0,2.0,46,0.00,,,0.00,weatherlink.com 1.10,2013-02-17 16:55:00,
2013-02-17 10:10:00,43.4,23.0,29.95,SSW,207,0.0,1.0,45,0.00,,,0.00,weatherlink.com 1.10,2013-02-17 17:10:00,
2013-02-17 10:25:00,46.2,24.0,29.95,SSW,207,0.0,0.0,41,0.00,,,0.00,weatherlink.com 1.10,2013-02-17 17:25:00,
2013-02-17 10:40:00,49.2,24.0,29.94,NNW,348,0.0,3.0,38,0.00,,,0.00,weatherlink.com 1.10,2013-02-17 17:40:00,
2013-02-17 10:55:00,51.8,21.0,29.93,SW,227,2.0,4.0,30,0.00,,,0.00,weatherlink.com 1.10,2013-02-17 17:55:00,
2013-02-17 11:10:00,55.5,21.0,29.93,SW,236,3.0,6.0,26,0.00,,,0.00,weatherlink.com 1.10,2013-02-17 18:10:00,
2013-02-17 11:25:00,57.9,18.0,29.92,SW,215,12.0,18.0,21,0.00,,,0.00,weatherlink.com 1.10,2013-02-17 18:25:00,
2013-02-17 11:40:00,58.2,18.0,29.91,SW,233,9.0,16.0,21,0.00,,,0.00,weatherlink.com 1.10,2013-02-17 18:40:00,
2013-02-17 11:56:00,58.7,19.0,29.90,SSW,200,7.0,20.0,21,0.00,,,0.00,weatherlink.com 1.10,2013-02-17 18:56:00,
2013-02-17 12:11:00,59.0,19.0,29.90,SSW,209,8.0,19.0,21,0.00,,,0.00,weatherlink.com 1.10,2013-02-17 19:11:00,
2013-02-17 12:26:00,59.0,19.0,29.89,SW,217,14.0,21.0,21,0.00,,,0.00,weatherlink.com 1.10,2013-02-17 19:26:00,
2013-02-17 12:41:00,59.2,18.0,29.89,SSW,203,12.0,17.0,20,0.00,,,0.00,weatherlink.com 1.10,2013-02-17 19:41:00,
2013-02-17 12:56:00,59.4,19.0,29.88,SSW,199,11.0,16.0,21,0.00,,,0.00,weatherlink.com 1.10,2013-02-17 19:56:00,
2013-02-17 13:11:00,59.6,17.0,29.87,SSW,206,6.0,15.0,19,0.00,,,0.00,weatherlink.com 1.10,2013-02-17 20:11:00,
2013-02-17 13:26:00,59.9,19.0,29.86,SSW,209,6.0,14.0,20,0.00,,,0.00,weatherlink.com 1.10,2013-02-17 20:26:00,
2013-02-17 13:41:00,59.5,17.0,29.86,SW,232,12.0,15.0,19,0.00,,,0.00,weatherlink.com 1.10,2013-02-17 20:41:00,
2013-02-17 13:56:00,59.4,19.0,29.86,SW,234,9.0,16.0,21,0.00,,,0.00,weatherlink.com 1.10,2013-02-17 20:56:00,
2013-02-17 14:11:00,60.0,16.0,29.86,SW,217,4.0,19.0,18,0.00,,,0.00,weatherlink.com 1.10,2013-02-17 21:11:00,
2013-02-17 14:26:00,59.0,17.0,29.86,WSW,256,12.0,17.0,19,0.00,,,0.00,weatherlink.com 1.10,2013-02-17 21:26:00,
2013-02-17 14:41:00,58.8,18.0,29.86,SW,215,6.0,16.0,20,0.00,,,0.00,weatherlink.com 1.10,2013-02-17 21:41:00,
2013-02-17 14:56:00,59.0,19.0,29.85,SW,227,7.0,16.0,21,0.00,,,0.00,weatherlink.com 1.10,2013-02-17 21:56:00,
2013-02-17 15:11:00,59.0,19.0,29.85,SW,217,12.0,18.0,21,0.00,,,0.00,weatherlink.com 1.10,2013-02-17 22:11:00,
2013-02-17 15:26:00,58.8,18.0,29.85,SW,232,9.0,16.0,20,0.00,,,0.00,weatherlink.com 1.10,2013-02-17 22:26:00,
2013-02-17 15:41:00,58.5,17.0,29.84,WSW,248,14.0,21.0,20,0.00,,,0.00,weatherlink.com 1.10,2013-02-17 22:41:00,
2013-02-17 15:56:00,58.0,17.0,29.84,SSW,198,11.0,21.0,20,0.00,,,0.00,weatherlink.com 1.10,2013-02-17 22:56:00,
2013-02-17 16:11:00,58.1,17.0,29.84,SW,222,12.0,19.0,20,0.00,,,0.00,weatherlink.com 1.10,2013-02-17 23:11:00,
2013-02-17 16:26:00,57.5,15.0,29.84,SW,228,8.0,17.0,19,0.00,,,0.00,weatherlink.com 1.10,2013-02-17 23:26:00,
2013-02-17 16:41:00,56.8,16.0,29.85,SW,227,14.0,20.0,20,0.00,,,0.00,weatherlink.com 1.10,2013-02-17 23:41:00,
2013-02-17 16:56:00,56.1,16.0,29.85,SW,225,10.0,17.0,21,0.00,,,0.00,weatherlink.com 1.10,2013-02-17 23:56:00,
2013-02-17 17:11:00,55.8,16.0,29.86,SW,218,3.0,15.0,21,0.00,,,0.00,weatherlink.com 1.10,2013-02-18 00:11:00,
2013-02-17 17:26:00,55.0,16.0,29.86,SW,220,5.0,13.0,21,0.00,,,0.00,weatherlink.com 1.10,2013-02-18 00:26:00,
2013-02-17 17:41:00,53.8,15.0,29.87,SW,226,5.0,14.0,21,0.00,,,0.00,weatherlink.com 1.10,2013-02-18 00:41:00,
2013-02-17 17:56:00,52.7,16.0,29.87,SW,214,7.0,14.0,23,0.00,,,0.00,weatherlink.com 1.10,2013-02-18 00:56:00,
2013-02-17 18:11:00,51.2,15.0,29.87,SW,217,4.0,14.0,24,0.00,,,0.00,weatherlink.com 1.10,2013-02-18 01:11:00,
2013-02-17 18:26:00,49.3,16.0,29.88,SW,214,1.0,6.0,26,0.00,,,0.00,weatherlink.com 1.10,2013-02-18 01:26:00,
2013-02-17 18:41:00,47.3,16.0,29.89,SSW,205,2.0,4.0,28,0.00,,,0.00,weatherlink.com 1.10,2013-02-18 01:41:00,
2013-02-17 18:56:00,45.5,16.0,29.89,South,186,3.0,4.0,30,0.00,,,0.00,weatherlink.com 1.10,2013-02-18 01:56:00,
2013-02-17 19:11:00,43.6,16.0,29.90,South,173,1.0,3.0,33,0.00,,,0.00,weatherlink.com 1.10,2013-02-18 02:11:00,
2013-02-17 19:26:00,42.0,15.0,29.91,SSE,165,2.0,3.0,34,0.00,,,0.00,weatherlink.com 1.10,2013-02-18 02:26:00,
2013-02-17 19:41:00,40.9,16.0,29.91,South,172,3.0,4.0,36,0.00,,,0.00,weatherlink.com 1.10,2013-02-18 02:41:00,
2013-02-17 19:56:00,40.6,15.0,29.90,South,189,4.0,6.0,36,0.00,,,0.00,weatherlink.com 1.10,2013-02-18 02:56:00,
2013-02-17 20:11:00,40.1,16.0,29.91,South,182,4.0,6.0,37,0.00,,,0.00,weatherlink.com 1.10,2013-02-18 03:11:00,
2013-02-17 20:26:00,39.8,16.0,29.92,SSE,167,2.0,5.0,38,0.00,,,0.00,weatherlink.com 1.10,2013-02-18 03:26:00,
2013-02-17 20:41:00,39.5,16.0,29.93,South,181,3.0,5.0,38,0.00,,,0.00,weatherlink.com 1.10,2013-02-18 03:41:00,
2013-02-17 20:56:00,39.1,15.0,29.93,South,190,3.0,3.0,38,0.00,,,0.00,weatherlink.com 1.10,2013-02-18 03:56:00,
2013-02-17 21:11:00,38.3,15.0,29.94,SSW,195,2.0,5.0,39,0.00,,,0.00,weatherlink.com 1.10,2013-02-18 04:11:00,
2013-02-17 21:41:00,38.4,15.0,29.95,South,171,2.0,5.0,39,0.00,,,0.00,weatherlink.com 1.10,2013-02-18 04:41:00,
2013-02-17 21:56:00,38.7,15.0,29.94,South,180,6.0,11.0,38,0.00,,,0.00,weatherlink.com 1.10,2013-02-18 04:56:00,
2013-02-17 22:11:00,39.6,16.0,29.95,South,175,2.0,7.0,38,0.00,,,0.00,weatherlink.com 1.10,2013-02-18 05:11:00,
2013-02-17 22:27:00,38.9,16.0,29.95,South,174,3.0,5.0,39,0.00,,,0.00,weatherlink.com 1.10,2013-02-18 05:27:00,
2013-02-17 22:41:00,39.1,16.0,29.96,South,176,2.0,7.0,39,0.00,,,0.00,weatherlink.com 1.10,2013-02-18 05:41:00,
2013-02-17 22:56:00,39.2,15.0,29.96,South,180,4.0,7.0,38,0.00,,,0.00,weatherlink.com 1.10,2013-02-18 05:56:00,
2013-02-17 23:11:00,39.2,16.0,29.96,South,183,4.0,9.0,39,0.00,,,0.00,weatherlink.com 1.10,2013-02-18 06:11:00,
2013-02-17 23:26:00,39.8,16.0,29.96,South,186,5.0,8.0,38,0.00,,,0.00,weatherlink.com 1.10,2013-02-18 06:26:00,
2013-02-17 23:41:00,39.8,16.0,29.96,South,183,5.0,8.0,38,0.00,,,0.00,weatherlink.com 1.10,2013-02-18 06:41:00,
2013-02-17 23:56:00,38.9,16.0,29.95,South,188,5.0,8.0,39,0.00,,,0.00,weatherlink.com 1.10,2013-02-18 06:56:00,